createdAt,value
2022-12-19T00:01:19.361Z,18.80
2022-12-19T00:03:48.272Z,20.25
2022-12-19T00:06:16.592Z,24.00
2022-12-19T00:08:45.539Z,25.17
2022-12-19T00:11:14.267Z,21.00
2022-12-19T00:13:41.511Z,22.20
2022-12-19T00:16:14.820Z,19.17
2022-12-19T00:18:45.691Z,22.35
2022-12-19T00:21:14.930Z,20.30
2022-12-19T00:23:41.899Z,21.25
2022-12-19T00:26:08.559Z,19.83
2022-12-19T00:28:35.418Z,19.23
2022-12-19T00:31:03.141Z,21.10
2022-12-19T00:33:30.232Z,23.38
2022-12-19T00:36:02.008Z,18.73
2022-12-19T00:38:29.416Z,21.80
2022-12-19T00:40:56.131Z,21.55
2022-12-19T00:43:22.858Z,17.75
2022-12-19T00:45:49.435Z,19.35
2022-12-19T00:48:15.977Z,22.23
2022-12-19T00:50:45.323Z,21.27
2022-12-19T00:53:12.423Z,20.85
2022-12-19T00:55:39.282Z,23.42
2022-12-19T00:58:05.913Z,23.55
2022-12-19T01:00:32.615Z,22.10
2022-12-19T01:02:59.457Z,20.42
2022-12-19T01:05:26.940Z,20.98
2022-12-19T01:07:53.901Z,22.23
2022-12-19T01:10:20.589Z,22.60
2022-12-19T01:12:47.197Z,21.05
2022-12-19T01:15:20.592Z,19.23
2022-12-19T01:17:50.349Z,21.83
2022-12-19T01:20:24.336Z,23.50
2022-12-19T01:22:56.020Z,22.77
2022-12-19T01:25:22.642Z,21.08
2022-12-19T01:27:49.162Z,20.80
2022-12-19T01:30:15.868Z,22.13
2022-12-19T01:32:43.445Z,21.83
2022-12-19T01:35:16.646Z,21.90
2022-12-19T01:37:50.145Z,20.60
2022-12-19T01:40:16.982Z,20.67
2022-12-19T01:42:43.962Z,24.27
2022-12-19T01:45:13.856Z,23.73
2022-12-19T01:47:55.674Z,22.88
2022-12-19T01:50:51.967Z,20.92
2022-12-19T01:53:33.543Z,21.85
2022-12-19T01:56:09.644Z,20.20
2022-12-19T01:58:40.148Z,21.67
2022-12-19T02:01:06.865Z,22.45
2022-12-19T02:03:35.917Z,25.45
2022-12-19T02:06:05.486Z,20.00
2022-12-19T02:08:32.958Z,20.45
2022-12-19T02:11:01.568Z,22.08
2022-12-19T02:13:28.255Z,21.02
2022-12-19T02:16:02.827Z,21.63
2022-12-19T02:18:48.279Z,22.20
2022-12-19T02:21:45.604Z,20.75
2022-12-19T02:24:35.967Z,22.80
2022-12-19T02:27:26.566Z,24.02
2022-12-19T02:29:53.147Z,23.70
2022-12-19T02:32:35.394Z,19.63
2022-12-19T02:35:15.511Z,23.23
2022-12-19T02:37:55.719Z,22.88
2022-12-19T02:40:32.032Z,25.08
2022-12-19T02:43:02.411Z,23.58
2022-12-19T02:45:34.755Z,25.83
2022-12-19T02:48:08.387Z,27.58
2022-12-19T02:50:37.694Z,25.42
2022-12-19T02:53:04.408Z,25.52
2022-12-19T02:55:38.520Z,21.08
2022-12-19T02:58:17.188Z,22.60
2022-12-19T03:01:17.890Z,20.77
2022-12-19T03:04:17.548Z,22.73
2022-12-19T03:07:01.821Z,23.83
2022-12-19T03:09:50.879Z,22.63
2022-12-19T03:12:25.803Z,22.73
2022-12-19T03:14:54.343Z,22.58
2022-12-19T03:17:21.099Z,23.88
2022-12-19T03:19:47.954Z,21.85
2022-12-19T03:22:14.826Z,23.25
2022-12-19T03:24:41.898Z,22.88
2022-12-19T03:27:25.841Z,24.83
2022-12-19T03:30:01.946Z,26.35
2022-12-19T03:32:31.295Z,20.23
2022-12-19T03:35:14.300Z,21.85
2022-12-19T03:37:42.604Z,21.77
2022-12-19T03:40:14.779Z,23.10
2022-12-19T03:43:01.093Z,24.10
2022-12-19T03:45:40.089Z,24.38
2022-12-19T03:48:25.095Z,21.55
2022-12-19T03:50:54.837Z,21.88
2022-12-19T03:53:42.936Z,23.80
2022-12-19T03:56:16.078Z,22.80
2022-12-19T03:58:48.232Z,22.20
2022-12-19T04:01:15.269Z,26.20
2022-12-19T04:03:42.099Z,21.20
2022-12-19T04:06:10.083Z,22.52
2022-12-19T04:08:37.332Z,21.13
2022-12-19T04:11:10.481Z,23.38
2022-12-19T04:13:43.273Z,26.00
2022-12-19T04:16:16.902Z,25.00
2022-12-19T04:18:51.625Z,23.98
2022-12-19T04:21:25.976Z,23.67
2022-12-19T04:23:58.074Z,19.50
2022-12-19T04:26:25.896Z,25.58
2022-12-19T04:29:01.538Z,24.02
2022-12-19T04:31:28.194Z,30.40
2022-12-19T04:33:55.082Z,26.42
2022-12-19T04:36:22.090Z,23.48
2022-12-19T04:38:48.771Z,25.60
2022-12-19T04:41:15.409Z,27.13
2022-12-19T04:43:42.069Z,27.27
2022-12-19T04:46:08.820Z,25.60
2022-12-19T04:48:38.148Z,28.35
2022-12-19T04:51:05.362Z,27.80
2022-12-19T04:53:32.783Z,25.33
2022-12-19T04:56:04.642Z,25.25
2022-12-19T04:58:31.467Z,24.92
2022-12-19T05:01:02.390Z,26.95
2022-12-19T05:03:29.064Z,25.27
2022-12-19T05:06:10.056Z,27.67
2022-12-19T05:08:38.963Z,25.38
2022-12-19T05:11:06.887Z,27.40
2022-12-19T05:13:33.687Z,26.20
2022-12-19T05:16:02.779Z,29.35
2022-12-19T05:18:30.122Z,28.42
2022-12-19T05:20:57.019Z,30.35
2022-12-19T05:23:24.309Z,28.15
2022-12-19T05:25:51.378Z,27.95
2022-12-19T05:28:19.558Z,25.35
2022-12-19T05:30:51.957Z,24.75
2022-12-19T05:33:19.042Z,28.83
2022-12-19T05:35:45.747Z,26.23
2022-12-19T05:38:12.429Z,30.05
2022-12-19T05:40:39.069Z,30.67
2022-12-19T05:43:05.718Z,22.52
2022-12-19T05:45:32.267Z,25.40
2022-12-19T05:48:01.453Z,33.20
2022-12-19T05:50:28.475Z,24.52
2022-12-19T05:52:55.295Z,28.58
2022-12-19T05:55:21.872Z,28.23
2022-12-19T05:57:48.415Z,27.05
2022-12-19T06:00:16.574Z,31.30
2022-12-19T06:02:46.086Z,27.00
2022-12-19T06:05:12.834Z,33.55
2022-12-19T06:07:39.387Z,30.40
2022-12-19T06:10:07.207Z,27.70
2022-12-19T06:12:33.884Z,26.48
2022-12-19T06:15:00.502Z,28.63
2022-12-19T06:17:27.357Z,40.13
2022-12-19T06:19:53.947Z,29.63
2022-12-19T06:22:20.539Z,26.35
2022-12-19T06:24:47.160Z,28.48
2022-12-19T06:27:13.839Z,28.38
2022-12-19T06:29:40.834Z,34.08
2022-12-19T06:32:07.593Z,27.23
2022-12-19T06:37:22.099Z,34.08
2022-12-19T06:39:50.617Z,22.15
2022-12-19T06:42:23.312Z,29.08
2022-12-19T06:44:56.249Z,26.77
2022-12-19T06:47:24.728Z,27.95
2022-12-19T06:49:51.936Z,31.55
2022-12-19T06:52:18.773Z,21.80
2022-12-19T06:54:45.740Z,28.95
2022-12-19T06:57:12.602Z,28.63
2022-12-19T06:59:39.308Z,26.15
2022-12-19T07:02:08.867Z,26.10
2022-12-19T07:04:57.995Z,28.98
2022-12-19T07:07:24.722Z,23.95
2022-12-19T07:09:51.398Z,20.95
2022-12-19T07:12:18.027Z,26.95
2022-12-19T07:14:48.978Z,25.52
2022-12-19T07:17:21.034Z,25.35
2022-12-19T07:19:48.036Z,26.63
2022-12-19T07:22:15.215Z,25.98
2022-12-19T07:24:42.064Z,26.00
2022-12-19T07:27:08.782Z,27.42
2022-12-19T07:29:35.358Z,32.25
2022-12-19T07:32:02.050Z,27.27
2022-12-19T07:34:28.703Z,29.95
2022-12-19T07:36:55.266Z,37.35
2022-12-19T07:39:23.456Z,31.42
2022-12-19T07:41:50.228Z,32.15
2022-12-19T07:44:16.917Z,29.27
2022-12-19T07:46:43.941Z,30.63
2022-12-19T07:49:10.791Z,21.65
2022-12-19T07:51:37.527Z,23.88
2022-12-19T07:54:04.355Z,23.55
2022-12-19T07:56:31.154Z,23.08
2022-12-19T07:58:58.595Z,29.48
2022-12-19T08:01:25.510Z,32.13
2022-12-19T08:03:55.422Z,35.90
2022-12-19T08:06:22.148Z,30.33
2022-12-19T08:08:51.480Z,33.92
2022-12-19T08:11:27.695Z,32.45
2022-12-19T08:13:58.093Z,44.85
2022-12-19T08:16:27.007Z,31.10
2022-12-19T08:18:54.917Z,31.77
2022-12-19T08:21:22.965Z,31.05
2022-12-19T08:23:51.578Z,32.45
2022-12-19T08:26:25.454Z,30.80
2022-12-19T08:28:54.108Z,30.67
2022-12-19T08:31:24.412Z,31.58
2022-12-19T08:33:55.875Z,31.45
2022-12-19T08:36:23.452Z,28.00
2022-12-19T08:38:51.016Z,35.00
2022-12-19T08:41:18.356Z,30.38
2022-12-19T08:43:54.163Z,33.72
2022-12-19T08:46:22.511Z,35.80
2022-12-19T08:48:49.414Z,34.88
2022-12-19T08:51:17.039Z,33.20
2022-12-19T08:53:45.173Z,32.50
2022-12-19T08:56:15.586Z,32.67
2022-12-19T08:58:42.499Z,42.40
2022-12-19T09:01:13.544Z,41.25
2022-12-19T09:04:58.670Z,39.90
2022-12-19T09:06:27.806Z,37.10
2022-12-19T09:08:54.652Z,40.53
2022-12-19T09:11:27.361Z,35.95
2022-12-19T09:13:57.250Z,36.30
2022-12-19T09:16:26.009Z,40.13
2022-12-19T09:18:54.926Z,43.47
2022-12-19T09:21:24.569Z,38.28
2022-12-19T09:23:54.714Z,33.63
2022-12-19T09:26:23.508Z,28.23
2022-12-19T09:28:51.257Z,31.63
2022-12-19T09:31:21.395Z,28.52
2022-12-19T09:33:48.491Z,30.67
2022-12-19T09:36:20.476Z,25.38
2022-12-19T09:38:47.982Z,32.50
2022-12-19T09:41:38.635Z,30.67
2022-12-19T09:44:36.441Z,24.90
2022-12-19T09:47:11.137Z,27.42
2022-12-19T09:49:45.107Z,29.92
2022-12-19T09:52:33.228Z,18.52
2022-12-19T09:55:06.299Z,15.38
2022-12-19T09:57:50.659Z,14.68
2022-12-19T10:00:22.149Z,20.08
2022-12-19T10:03:01.637Z,22.20
2022-12-19T10:06:17.465Z,30.33
2022-12-19T10:08:47.230Z,21.52
2022-12-19T10:12:42.573Z,19.77
2022-12-19T10:15:08.603Z,14.52
2022-12-19T10:17:53.883Z,13.23
2022-12-19T10:20:31.215Z,18.52
2022-12-19T10:23:40.170Z,16.67
2022-12-19T10:26:23.450Z,21.75
2022-12-19T10:29:14.979Z,26.95
2022-12-19T10:31:58.575Z,24.38
2022-12-19T10:34:33.868Z,29.25
2022-12-19T10:37:37.731Z,22.20
2022-12-19T10:40:10.458Z,29.65
2022-12-19T10:43:22.927Z,25.25
2022-12-19T10:46:04.061Z,22.65
2022-12-19T10:48:31.595Z,21.88
2022-12-19T10:51:02.085Z,28.88
2022-12-19T10:53:34.094Z,23.95
2022-12-19T10:56:11.809Z,28.27
2022-12-19T10:58:43.361Z,20.45
2022-12-19T11:01:20.482Z,23.75
2022-12-19T11:03:52.382Z,25.48
2022-12-19T11:06:34.870Z,25.63
2022-12-19T11:09:18.507Z,18.38
2022-12-19T11:17:10.584Z,25.48
2022-12-19T11:19:49.694Z,14.35
2022-12-19T11:26:26.374Z,17.45
2022-12-19T11:29:35.108Z,20.42
2022-12-19T11:30:06.174Z,22.05
2022-12-19T11:30:41.737Z,25.35
2022-12-19T11:30:47.441Z,24.13
2022-12-19T11:34:32.330Z,19.92
2022-12-19T11:37:25.405Z,22.15
2022-12-19T11:40:06.559Z,22.05
2022-12-19T11:42:39.951Z,20.63
2022-12-19T11:45:34.937Z,15.20
2022-12-19T11:48:26.468Z,22.70
2022-12-19T11:51:06.731Z,15.75
2022-12-19T11:53:49.689Z,15.15
2022-12-19T11:56:20.634Z,17.58
2022-12-19T11:58:59.234Z,10.27
2022-12-19T12:01:56.708Z,14.48
2022-12-19T12:04:41.617Z,16.65
2022-12-19T12:07:24.235Z,16.88
2022-12-19T12:14:43.092Z,17.10
2022-12-19T12:19:56.447Z,13.05
2022-12-19T12:29:39.810Z,18.83
2022-12-19T12:31:05.950Z,17.77
2022-12-19T12:31:21.097Z,15.27
2022-12-19T12:31:42.784Z,13.50
2022-12-19T12:32:03.741Z,17.85
2022-12-19T12:36:53.064Z,13.30
2022-12-19T12:38:26.403Z,11.90
2022-12-19T12:41:15.621Z,15.50
2022-12-19T12:43:46.819Z,6.18
2022-12-19T12:46:19.604Z,15.00
2022-12-19T12:48:53.199Z,13.15
2022-12-19T12:51:21.438Z,18.33
2022-12-19T12:53:49.831Z,11.68
2022-12-19T12:56:18.300Z,5.78
2022-12-19T12:59:05.426Z,16.20
2022-12-19T13:01:40.462Z,15.20
2022-12-19T13:04:13.208Z,13.20
2022-12-19T13:06:42.743Z,13.75
2022-12-19T13:09:09.413Z,13.20
2022-12-19T13:11:58.435Z,12.80
2022-12-19T13:14:34.138Z,14.25
2022-12-19T13:17:23.537Z,11.60
2022-12-19T13:19:55.333Z,4.38
2022-12-19T13:22:31.546Z,5.03
2022-12-19T13:25:00.722Z,10.77
2022-12-19T13:27:37.468Z,8.63
2022-12-19T13:30:14.864Z,9.27
2022-12-19T13:32:41.713Z,6.20
2022-12-19T13:36:49.249Z,7.38
2022-12-19T13:39:47.983Z,8.50
2022-12-19T13:40:57.681Z,8.32
2022-12-19T13:43:48.915Z,4.10
2022-12-19T13:46:37.643Z,11.25
2022-12-19T13:49:17.361Z,11.98
2022-12-19T13:51:55.229Z,7.97
2022-12-19T13:54:34.699Z,11.45
2022-12-19T13:57:08.928Z,12.38
2022-12-19T13:59:39.960Z,10.77
2022-12-19T14:02:16.169Z,11.82
2022-12-19T14:04:45.559Z,13.02
2022-12-19T14:07:37.000Z,9.38
2022-12-19T14:11:37.219Z,10.05
2022-12-19T14:13:58.818Z,7.28
2022-12-19T14:16:43.990Z,3.97
2022-12-19T14:19:27.805Z,10.30
2022-12-19T14:22:09.946Z,10.57
2022-12-19T14:24:41.633Z,18.35
2022-12-19T14:28:24.644Z,10.77
2022-12-19T14:30:27.494Z,12.52
2022-12-19T14:33:45.636Z,13.55
2022-12-19T14:36:09.031Z,12.80
2022-12-19T14:39:24.399Z,13.52
2022-12-19T14:41:46.240Z,14.05
2022-12-19T14:52:34.136Z,11.38
2022-12-19T14:54:01.703Z,14.10
2022-12-19T14:54:23.411Z,12.10
2022-12-19T14:54:44.052Z,5.05
2022-12-19T14:56:17.521Z,8.05
2022-12-19T14:58:55.374Z,9.00
2022-12-19T15:01:26.630Z,7.15
2022-12-19T15:04:48.011Z,9.82
2022-12-19T15:07:08.731Z,7.75
2022-12-19T15:11:05.087Z,9.75
2022-12-19T15:14:50.792Z,12.18
2022-12-19T15:16:03.453Z,9.82
2022-12-19T15:18:33.179Z,8.32
2022-12-19T15:21:05.985Z,8.52
2022-12-19T15:23:33.004Z,9.23
2022-12-19T15:26:08.408Z,3.97
2022-12-19T15:28:41.945Z,10.27
2022-12-19T15:31:39.156Z,8.52
2022-12-19T15:34:35.805Z,9.38
2022-12-19T15:37:05.104Z,5.25
2022-12-19T15:39:31.710Z,12.40
2022-12-19T15:42:00.635Z,17.60
2022-12-19T15:44:36.751Z,13.88
2022-12-19T15:47:06.348Z,19.30
2022-12-19T15:49:35.263Z,19.55
2022-12-19T15:52:02.928Z,16.38
2022-12-19T15:57:39.705Z,17.50
2022-12-19T16:00:12.948Z,18.80
2022-12-19T16:05:29.329Z,19.25
2022-12-19T16:07:58.901Z,10.95
2022-12-19T16:10:26.341Z,21.48
2022-12-19T16:12:58.110Z,24.52
2022-12-19T16:15:27.878Z,24.20
2022-12-19T16:17:56.047Z,18.70
2022-12-19T16:20:26.785Z,15.73
2022-12-19T16:22:54.020Z,22.83
2022-12-19T16:25:21.931Z,17.75
2022-12-19T16:27:55.955Z,20.38
2022-12-19T16:30:27.350Z,23.70
2022-12-19T16:32:54.039Z,15.48
2022-12-19T16:35:40.170Z,20.25
2022-12-19T16:38:10.454Z,22.98
2022-12-19T16:40:37.615Z,19.55
2022-12-19T16:43:15.637Z,22.40
2022-12-19T16:45:43.371Z,21.35
2022-12-19T16:48:25.327Z,18.35
2022-12-19T16:50:52.744Z,16.38
2022-12-19T16:53:19.885Z,18.80
2022-12-19T16:55:49.094Z,21.55
2022-12-19T16:58:27.413Z,25.63
2022-12-19T17:00:55.429Z,19.73
2022-12-19T17:03:32.337Z,10.77
2022-12-19T17:05:59.407Z,19.60
2022-12-19T17:08:26.023Z,17.25
2022-12-19T17:10:54.869Z,19.50
2022-12-19T17:13:22.686Z,22.30
2022-12-19T17:15:56.274Z,24.65
2022-12-19T17:18:34.079Z,25.55
2022-12-19T17:21:00.949Z,20.95
2022-12-19T17:23:30.157Z,18.00
2022-12-19T17:25:58.200Z,25.33
2022-12-19T17:28:25.135Z,23.23
2022-12-19T17:30:55.389Z,20.73
2022-12-19T17:33:33.350Z,20.63
2022-12-19T17:36:02.015Z,23.48
2022-12-19T17:38:28.643Z,18.77
2022-12-19T17:40:55.399Z,20.65
2022-12-19T17:43:22.319Z,21.25
2022-12-19T17:45:50.704Z,20.75
2022-12-19T17:48:28.486Z,16.38
2022-12-19T17:50:56.178Z,14.68
2022-12-19T17:53:23.422Z,14.82
2022-12-19T17:55:50.791Z,21.55
2022-12-19T17:58:17.398Z,24.55
2022-12-19T18:00:47.165Z,19.75
2022-12-19T18:03:21.721Z,21.45
2022-12-19T18:05:50.495Z,19.27
2022-12-19T18:08:35.158Z,23.20
2022-12-19T18:11:04.369Z,20.80
2022-12-19T18:13:32.349Z,23.27
2022-12-19T18:16:03.399Z,21.20
2022-12-19T18:18:33.703Z,20.08
2022-12-19T18:21:02.086Z,17.58
2022-12-19T18:23:30.543Z,14.90
2022-12-19T18:26:01.852Z,13.55
2022-12-19T18:28:29.577Z,14.65
2022-12-19T18:31:06.178Z,14.57
2022-12-19T18:33:39.010Z,11.07
2022-12-19T18:36:07.026Z,11.57
2022-12-19T18:38:33.906Z,11.13
2022-12-19T18:41:00.761Z,8.65
2022-12-19T18:43:27.411Z,6.07
2022-12-19T18:45:54.017Z,2.80
2022-12-19T18:48:25.677Z,4.70
2022-12-19T18:50:56.655Z,6.75
2022-12-19T18:53:27.452Z,5.10
2022-12-19T18:55:58.680Z,7.63
2022-12-19T18:58:25.354Z,6.60
2022-12-19T19:00:59.005Z,3.55
2022-12-19T19:03:38.709Z,5.60
2022-12-19T19:06:14.096Z,4.05
2022-12-19T19:08:40.821Z,5.55
2022-12-19T19:11:07.599Z,7.25
2022-12-19T19:13:34.408Z,7.45
2022-12-19T19:16:05.461Z,5.50
2022-12-19T19:18:37.602Z,5.85
2022-12-19T19:21:05.995Z,6.07
2022-12-19T19:23:37.513Z,5.70
2022-12-19T19:26:05.821Z,9.27
2022-12-19T19:28:32.483Z,8.13
2022-12-19T19:31:01.312Z,3.50
2022-12-19T19:33:34.660Z,8.18
2022-12-19T19:36:11.625Z,6.72
2022-12-19T19:38:41.388Z,8.93
2022-12-19T19:41:08.244Z,7.35
2022-12-19T19:43:35.619Z,6.60
2022-12-19T19:46:02.843Z,5.05
2022-12-19T19:48:30.227Z,5.82
2022-12-19T19:50:57.268Z,5.75
2022-12-19T19:53:24.025Z,7.22
2022-12-19T19:56:01.430Z,4.18
2022-12-19T19:58:29.255Z,6.97
2022-12-19T20:00:56.784Z,5.40
2022-12-19T20:03:24.599Z,3.88
2022-12-19T20:05:59.127Z,3.85
2022-12-19T20:08:26.276Z,4.88
2022-12-19T20:10:57.322Z,2.15
2022-12-19T20:13:24.596Z,3.88
2022-12-19T20:15:52.049Z,1.63
2022-12-19T20:18:18.976Z,1.10
2022-12-19T20:20:48.747Z,4.30
2022-12-19T20:23:15.714Z,3.90
2022-12-19T20:25:43.239Z,0.93
2022-12-19T20:28:10.048Z,3.47
2022-12-19T20:30:37.812Z,4.60
2022-12-19T20:33:04.449Z,3.85
2022-12-19T20:35:31.517Z,4.97
2022-12-19T20:37:58.122Z,3.33
2022-12-19T20:40:24.640Z,4.60
2022-12-19T20:42:51.300Z,4.70
2022-12-19T20:45:17.957Z,6.63
2022-12-19T20:47:44.547Z,3.70
2022-12-19T20:50:13.053Z,2.80
2022-12-19T20:52:40.337Z,2.05
2022-12-19T20:55:07.644Z,6.97
2022-12-19T20:57:34.266Z,2.80
2022-12-19T21:00:01.113Z,5.13
2022-12-19T21:02:27.847Z,1.77
2022-12-19T21:04:54.608Z,3.83
2022-12-19T21:07:21.411Z,5.45
2022-12-19T21:09:50.238Z,2.15
2022-12-19T21:12:17.057Z,2.65
2022-12-19T21:14:43.638Z,1.92
2022-12-19T21:17:10.255Z,3.25
2022-12-19T21:19:37.005Z,3.03
2022-12-19T21:22:03.826Z,5.03
2022-12-19T21:24:30.463Z,3.20
2022-12-19T21:26:58.316Z,6.20
2022-12-19T21:29:25.743Z,6.18
2022-12-19T21:31:52.532Z,5.05
2022-12-19T21:34:19.157Z,4.32
2022-12-19T21:36:45.732Z,5.78
2022-12-19T21:39:13.184Z,5.20
2022-12-19T21:41:40.095Z,6.68
2022-12-19T21:44:06.778Z,6.25
2022-12-19T21:46:33.925Z,6.97
2022-12-19T21:49:02.724Z,4.05
2022-12-19T21:51:31.398Z,5.57
2022-12-19T21:54:00.853Z,4.50
2022-12-19T21:56:32.237Z,6.18
2022-12-19T21:59:02.033Z,7.45
2022-12-19T22:01:30.330Z,7.93
2022-12-19T22:04:01.667Z,6.63
2022-12-19T22:06:31.946Z,6.43
2022-12-19T22:09:00.283Z,9.07
2022-12-19T22:11:28.503Z,6.03
2022-12-19T22:13:55.643Z,6.53
2022-12-19T22:16:22.352Z,10.70
2022-12-19T22:18:51.375Z,9.38
2022-12-19T22:21:18.209Z,6.88
2022-12-19T22:23:45.851Z,9.05
2022-12-19T22:26:15.378Z,8.38
2022-12-19T22:28:44.801Z,11.52
2022-12-19T22:31:22.421Z,9.18
2022-12-19T22:33:51.241Z,7.95
2022-12-19T22:36:25.811Z,10.57
2022-12-19T22:38:54.738Z,9.93
2022-12-19T22:41:21.515Z,12.50
2022-12-19T22:43:48.216Z,8.13
2022-12-19T22:46:16.492Z,10.77
2022-12-19T22:48:43.988Z,9.77
2022-12-19T22:51:29.600Z,11.13
2022-12-19T22:53:57.037Z,8.73
2022-12-19T22:56:26.423Z,11.38
2022-12-19T22:58:55.906Z,7.68
2022-12-19T23:01:28.461Z,10.00
2022-12-19T23:03:57.439Z,14.43
2022-12-19T23:06:26.563Z,11.13
2022-12-19T23:08:53.653Z,8.73
2022-12-19T23:11:23.505Z,9.15
2022-12-19T23:13:51.507Z,7.90
2022-12-19T23:16:18.733Z,11.63
2022-12-19T23:18:45.690Z,13.43
2022-12-19T23:21:19.339Z,10.40
2022-12-19T23:23:47.994Z,12.55
2022-12-19T23:26:18.086Z,10.60
2022-12-19T23:28:51.621Z,12.73
2022-12-19T23:31:18.482Z,10.02
2022-12-19T23:33:45.489Z,13.82
2022-12-19T23:36:12.165Z,13.55
2022-12-19T23:38:38.874Z,7.53
2022-12-19T23:41:08.575Z,8.85
2022-12-19T23:43:36.262Z,11.55
2022-12-19T23:46:14.016Z,11.18
2022-12-19T23:48:41.518Z,13.10
2022-12-19T23:51:11.973Z,14.02
2022-12-19T23:53:38.628Z,10.35
2022-12-19T23:56:11.018Z,11.50
2022-12-19T23:58:37.682Z,9.35
